sensor_id;sensor_type;location;lat;lon;timestamp;P1;durP1;ratioP1;P2;durP2;ratioP2
58294;SDS011;45705;55.592;37.460;2022-10-16T00:02:05;8.40;;;4.82;;
58294;SDS011;45705;55.592;37.460;2022-10-16T00:04:31;8.82;;;5.07;;
58294;SDS011;45705;55.592;37.460;2022-10-16T00:06:57;6.93;;;4.55;;
58294;SDS011;45705;55.592;37.460;2022-10-16T00:09:23;7.43;;;4.88;;
58294;SDS011;45705;55.592;37.460;2022-10-16T00:11:48;8.65;;;5.03;;
58294;SDS011;45705;55.592;37.460;2022-10-16T00:14:14;8.93;;;5.15;;
58294;SDS011;45705;55.592;37.460;2022-10-16T00:16:40;11.68;;;5.18;;
58294;SDS011;45705;55.592;37.460;2022-10-16T00:19:07;6.97;;;4.75;;
58294;SDS011;45705;55.592;37.460;2022-10-16T00:21:34;6.90;;;5.15;;
58294;SDS011;45705;55.592;37.460;2022-10-16T00:24:19;10.00;;;5.40;;
58294;SDS011;45705;55.592;37.460;2022-10-16T00:26:44;9.60;;;5.10;;
58294;SDS011;45705;55.592;37.460;2022-10-16T00:29:11;8.60;;;5.00;;
58294;SDS011;45705;55.592;37.460;2022-10-16T00:31:37;7.32;;;4.40;;
58294;SDS011;45705;55.592;37.460;2022-10-16T00:34:02;8.70;;;4.60;;
58294;SDS011;45705;55.592;37.460;2022-10-16T00:36:28;9.55;;;5.30;;
58294;SDS011;45705;55.592;37.460;2022-10-16T00:38:54;9.48;;;5.13;;
58294;SDS011;45705;55.592;37.460;2022-10-16T00:41:23;14.52;;;5.25;;
58294;SDS011;45705;55.592;37.460;2022-10-16T00:43:55;9.57;;;5.60;;
58294;SDS011;45705;55.592;37.460;2022-10-16T00:49:02;8.05;;;4.82;;
58294;SDS011;45705;55.592;37.460;2022-10-16T00:51:46;8.38;;;5.07;;
58294;SDS011;45705;55.592;37.460;2022-10-16T00:56:46;9.00;;;5.50;;
58294;SDS011;45705;55.592;37.460;2022-10-16T00:59:16;11.57;;;5.20;;
58294;SDS011;45705;55.592;37.460;2022-10-16T01:04:34;11.20;;;5.60;;
58294;SDS011;45705;55.592;37.460;2022-10-16T01:10:03;9.57;;;5.18;;
58294;SDS011;45705;55.592;37.460;2022-10-16T01:13:18;9.05;;;5.13;;
58294;SDS011;45705;55.592;37.460;2022-10-16T01:15:34;6.80;;;4.82;;
58294;SDS011;45705;55.592;37.460;2022-10-16T01:20:56;12.60;;;5.10;;
58294;SDS011;45705;55.592;37.460;2022-10-16T01:26:31;8.75;;;5.53;;
58294;SDS011;45705;55.592;37.460;2022-10-16T01:29:01;8.13;;;5.20;;
58294;SDS011;45705;55.592;37.460;2022-10-16T01:31:35;9.68;;;5.30;;
58294;SDS011;45705;55.592;37.460;2022-10-16T01:34:25;8.15;;;4.70;;
58294;SDS011;45705;55.592;37.460;2022-10-16T01:37:04;9.52;;;5.22;;
58294;SDS011;45705;55.592;37.460;2022-10-16T01:39:35;7.60;;;4.88;;
58294;SDS011;45705;55.592;37.460;2022-10-16T01:44:36;9.88;;;5.10;;
58294;SDS011;45705;55.592;37.460;2022-10-16T01:47:05;8.40;;;5.37;;
58294;SDS011;45705;55.592;37.460;2022-10-16T01:49:34;10.13;;;5.43;;
58294;SDS011;45705;55.592;37.460;2022-10-16T01:52:04;7.97;;;5.23;;
58294;SDS011;45705;55.592;37.460;2022-10-16T01:54:33;10.38;;;5.38;;
58294;SDS011;45705;55.592;37.460;2022-10-16T01:57:03;10.35;;;5.63;;
58294;SDS011;45705;55.592;37.460;2022-10-16T01:59:37;8.40;;;4.47;;
58294;SDS011;45705;55.592;37.460;2022-10-16T02:02:07;8.38;;;5.00;;
58294;SDS011;45705;55.592;37.460;2022-10-16T02:04:44;11.32;;;5.68;;
58294;SDS011;45705;55.592;37.460;2022-10-16T02:07:13;9.48;;;4.90;;
58294;SDS011;45705;55.592;37.460;2022-10-16T02:09:39;11.80;;;5.68;;
58294;SDS011;45705;55.592;37.460;2022-10-16T02:12:18;11.18;;;5.32;;
58294;SDS011;45705;55.592;37.460;2022-10-16T02:14:56;7.22;;;4.63;;
58294;SDS011;45705;55.592;37.460;2022-10-16T02:17:22;8.63;;;5.43;;
58294;SDS011;45705;55.592;37.460;2022-10-16T02:19:49;6.93;;;4.55;;
58294;SDS011;45705;55.592;37.460;2022-10-16T02:22:19;8.52;;;5.50;;
58294;SDS011;45705;55.592;37.460;2022-10-16T02:27:25;6.68;;;4.40;;
58294;SDS011;45705;55.592;37.460;2022-10-16T02:30:00;7.57;;;5.07;;
58294;SDS011;45705;55.592;37.460;2022-10-16T02:32:33;9.90;;;5.45;;
58294;SDS011;45705;55.592;37.460;2022-10-16T02:35:01;10.35;;;4.80;;
58294;SDS011;45705;55.592;37.460;2022-10-16T02:37:28;11.73;;;5.10;;
58294;SDS011;45705;55.592;37.460;2022-10-16T02:39:55;5.97;;;4.20;;
58294;SDS011;45705;55.592;37.460;2022-10-16T02:42:27;7.93;;;4.97;;
58294;SDS011;45705;55.592;37.460;2022-10-16T02:45:00;8.40;;;4.63;;
58294;SDS011;45705;55.592;37.460;2022-10-16T02:47:26;8.38;;;4.70;;
58294;SDS011;45705;55.592;37.460;2022-10-16T02:49:52;9.70;;;4.75;;
58294;SDS011;45705;55.592;37.460;2022-10-16T02:52:18;7.93;;;4.88;;
58294;SDS011;45705;55.592;37.460;2022-10-16T02:54:44;7.07;;;4.63;;
58294;SDS011;45705;55.592;37.460;2022-10-16T02:57:09;8.90;;;4.57;;
58294;SDS011;45705;55.592;37.460;2022-10-16T02:59:35;7.60;;;4.40;;
58294;SDS011;45705;55.592;37.460;2022-10-16T03:02:01;6.97;;;4.85;;
58294;SDS011;45705;55.592;37.460;2022-10-16T03:04:27;7.90;;;5.00;;
58294;SDS011;45705;55.592;37.460;2022-10-16T03:06:53;8.95;;;5.25;;
58294;SDS011;45705;55.592;37.460;2022-10-16T03:09:18;8.93;;;4.50;;
58294;SDS011;45705;55.592;37.460;2022-10-16T03:11:44;9.57;;;4.72;;
58294;SDS011;45705;55.592;37.460;2022-10-16T03:14:09;8.73;;;4.93;;
58294;SDS011;45705;55.592;37.460;2022-10-16T03:16:35;7.68;;;4.60;;
58294;SDS011;45705;55.592;37.460;2022-10-16T03:19:01;7.47;;;4.82;;
58294;SDS011;45705;55.592;37.460;2022-10-16T03:21:26;7.85;;;4.35;;
58294;SDS011;45705;55.592;37.460;2022-10-16T03:23:52;7.03;;;4.10;;
58294;SDS011;45705;55.592;37.460;2022-10-16T03:26:18;6.72;;;4.63;;
58294;SDS011;45705;55.592;37.460;2022-10-16T03:28:44;9.02;;;4.97;;
58294;SDS011;45705;55.592;37.460;2022-10-16T03:31:09;9.20;;;4.25;;
58294;SDS011;45705;55.592;37.460;2022-10-16T03:33:35;6.53;;;4.50;;
58294;SDS011;45705;55.592;37.460;2022-10-16T03:36:01;8.57;;;4.70;;
58294;SDS011;45705;55.592;37.460;2022-10-16T03:38:27;10.95;;;5.00;;
58294;SDS011;45705;55.592;37.460;2022-10-16T03:40:52;8.65;;;4.80;;
58294;SDS011;45705;55.592;37.460;2022-10-16T03:43:18;12.85;;;4.88;;
58294;SDS011;45705;55.592;37.460;2022-10-16T03:45:44;11.77;;;5.53;;
58294;SDS011;45705;55.592;37.460;2022-10-16T03:48:10;10.40;;;5.32;;
58294;SDS011;45705;55.592;37.460;2022-10-16T03:50:36;8.95;;;6.15;;
58294;SDS011;45705;55.592;37.460;2022-10-16T03:53:02;14.02;;;6.47;;
58294;SDS011;45705;55.592;37.460;2022-10-16T03:55:28;13.63;;;7.03;;
58294;SDS011;45705;55.592;37.460;2022-10-16T03:57:54;11.23;;;6.85;;
58294;SDS011;45705;55.592;37.460;2022-10-16T04:00:19;16.33;;;9.60;;
58294;SDS011;45705;55.592;37.460;2022-10-16T04:02:45;20.05;;;9.95;;
58294;SDS011;45705;55.592;37.460;2022-10-16T04:05:11;16.40;;;8.98;;
58294;SDS011;45705;55.592;37.460;2022-10-16T04:07:36;20.98;;;10.00;;
58294;SDS011;45705;55.592;37.460;2022-10-16T04:10:03;14.95;;;9.65;;
58294;SDS011;45705;55.592;37.460;2022-10-16T04:12:29;15.45;;;10.10;;
58294;SDS011;45705;55.592;37.460;2022-10-16T04:15:13;16.42;;;10.07;;
58294;SDS011;45705;55.592;37.460;2022-10-16T04:17:39;17.20;;;9.90;;
58294;SDS011;45705;55.592;37.460;2022-10-16T04:20:06;15.23;;;9.93;;
58294;SDS011;45705;55.592;37.460;2022-10-16T04:22:32;17.95;;;10.23;;
58294;SDS011;45705;55.592;37.460;2022-10-16T04:24:57;15.82;;;9.90;;
58294;SDS011;45705;55.592;37.460;2022-10-16T04:27:23;23.25;;;10.50;;
58294;SDS011;45705;55.592;37.460;2022-10-16T04:29:49;20.20;;;10.63;;
58294;SDS011;45705;55.592;37.460;2022-10-16T04:32:15;14.40;;;10.18;;
58294;SDS011;45705;55.592;37.460;2022-10-16T04:34:41;15.48;;;9.25;;
58294;SDS011;45705;55.592;37.460;2022-10-16T04:37:06;15.90;;;8.77;;
58294;SDS011;45705;55.592;37.460;2022-10-16T04:39:32;14.98;;;8.07;;
58294;SDS011;45705;55.592;37.460;2022-10-16T04:41:58;15.63;;;8.65;;
58294;SDS011;45705;55.592;37.460;2022-10-16T04:44:24;18.88;;;8.60;;
58294;SDS011;45705;55.592;37.460;2022-10-16T04:46:50;20.17;;;8.32;;
58294;SDS011;45705;55.592;37.460;2022-10-16T04:49:16;14.20;;;7.50;;
58294;SDS011;45705;55.592;37.460;2022-10-16T04:51:42;11.30;;;6.93;;
58294;SDS011;45705;55.592;37.460;2022-10-16T04:54:08;15.43;;;6.80;;
58294;SDS011;45705;55.592;37.460;2022-10-16T04:56:34;16.40;;;7.70;;
58294;SDS011;45705;55.592;37.460;2022-10-16T04:59:08;15.75;;;8.00;;
58294;SDS011;45705;55.592;37.460;2022-10-16T05:01:34;10.88;;;6.45;;
58294;SDS011;45705;55.592;37.460;2022-10-16T05:04:00;18.00;;;7.03;;
58294;SDS011;45705;55.592;37.460;2022-10-16T05:06:26;8.98;;;6.07;;
58294;SDS011;45705;55.592;37.460;2022-10-16T05:08:52;14.77;;;6.97;;
58294;SDS011;45705;55.592;37.460;2022-10-16T05:11:18;11.15;;;6.15;;
58294;SDS011;45705;55.592;37.460;2022-10-16T05:13:44;16.73;;;6.80;;
58294;SDS011;45705;55.592;37.460;2022-10-16T05:16:09;12.13;;;7.07;;
58294;SDS011;45705;55.592;37.460;2022-10-16T05:18:35;18.98;;;7.00;;
58294;SDS011;45705;55.592;37.460;2022-10-16T05:21:01;12.85;;;6.63;;
58294;SDS011;45705;55.592;37.460;2022-10-16T05:23:26;13.23;;;6.30;;
58294;SDS011;45705;55.592;37.460;2022-10-16T05:25:55;15.77;;;7.20;;
58294;SDS011;45705;55.592;37.460;2022-10-16T05:28:23;15.18;;;6.13;;
58294;SDS011;45705;55.592;37.460;2022-10-16T05:30:50;14.13;;;6.70;;
58294;SDS011;45705;55.592;37.460;2022-10-16T05:33:16;10.93;;;6.38;;
58294;SDS011;45705;55.592;37.460;2022-10-16T05:35:42;20.45;;;6.47;;
58294;SDS011;45705;55.592;37.460;2022-10-16T05:38:09;12.98;;;6.22;;
58294;SDS011;45705;55.592;37.460;2022-10-16T05:40:34;13.43;;;6.47;;
58294;SDS011;45705;55.592;37.460;2022-10-16T05:43:00;16.35;;;6.05;;
58294;SDS011;45705;55.592;37.460;2022-10-16T05:45:26;16.45;;;6.13;;
58294;SDS011;45705;55.592;37.460;2022-10-16T05:47:51;16.13;;;6.38;;
58294;SDS011;45705;55.592;37.460;2022-10-16T05:50:17;17.05;;;6.22;;
58294;SDS011;45705;55.592;37.460;2022-10-16T05:52:43;15.85;;;6.20;;
58294;SDS011;45705;55.592;37.460;2022-10-16T05:55:09;16.88;;;6.70;;
58294;SDS011;45705;55.592;37.460;2022-10-16T05:57:34;9.52;;;5.90;;
58294;SDS011;45705;55.592;37.460;2022-10-16T06:00:00;14.40;;;5.63;;
58294;SDS011;45705;55.592;37.460;2022-10-16T06:02:26;11.35;;;6.05;;
58294;SDS011;45705;55.592;37.460;2022-10-16T06:04:52;13.80;;;5.85;;
58294;SDS011;45705;55.592;37.460;2022-10-16T06:07:21;13.27;;;5.95;;
58294;SDS011;45705;55.592;37.460;2022-10-16T06:09:51;10.50;;;5.45;;
58294;SDS011;45705;55.592;37.460;2022-10-16T06:12:17;13.75;;;6.07;;
58294;SDS011;45705;55.592;37.460;2022-10-16T06:14:44;13.00;;;5.95;;
58294;SDS011;45705;55.592;37.460;2022-10-16T06:17:12;11.35;;;6.40;;
58294;SDS011;45705;55.592;37.460;2022-10-16T06:19:39;11.57;;;5.95;;
58294;SDS011;45705;55.592;37.460;2022-10-16T06:22:05;14.60;;;6.95;;
58294;SDS011;45705;55.592;37.460;2022-10-16T06:24:31;12.38;;;6.45;;
58294;SDS011;45705;55.592;37.460;2022-10-16T06:26:57;16.00;;;6.43;;
58294;SDS011;45705;55.592;37.460;2022-10-16T06:29:22;17.60;;;6.43;;
58294;SDS011;45705;55.592;37.460;2022-10-16T06:31:48;19.20;;;7.00;;
58294;SDS011;45705;55.592;37.460;2022-10-16T06:34:33;14.10;;;6.43;;
58294;SDS011;45705;55.592;37.460;2022-10-16T06:36:59;16.33;;;6.50;;
58294;SDS011;45705;55.592;37.460;2022-10-16T06:39:25;13.52;;;6.40;;
58294;SDS011;45705;55.592;37.460;2022-10-16T06:41:50;12.75;;;6.68;;
58294;SDS011;45705;55.592;37.460;2022-10-16T06:44:16;13.35;;;5.88;;
58294;SDS011;45705;55.592;37.460;2022-10-16T06:46:42;16.48;;;5.28;;
58294;SDS011;45705;55.592;37.460;2022-10-16T06:49:07;13.73;;;4.90;;
58294;SDS011;45705;55.592;37.460;2022-10-16T06:51:33;11.35;;;5.90;;
58294;SDS011;45705;55.592;37.460;2022-10-16T06:54:01;11.83;;;5.57;;
58294;SDS011;45705;55.592;37.460;2022-10-16T06:56:27;15.00;;;6.45;;
58294;SDS011;45705;55.592;37.460;2022-10-16T06:58:55;13.02;;;6.85;;
58294;SDS011;45705;55.592;37.460;2022-10-16T07:01:23;12.68;;;6.22;;
58294;SDS011;45705;55.592;37.460;2022-10-16T07:03:49;14.90;;;6.53;;
58294;SDS011;45705;55.592;37.460;2022-10-16T07:06:17;16.95;;;6.47;;
58294;SDS011;45705;55.592;37.460;2022-10-16T07:08:45;13.70;;;5.97;;
58294;SDS011;45705;55.592;37.460;2022-10-16T07:11:12;14.60;;;6.03;;
58294;SDS011;45705;55.592;37.460;2022-10-16T07:13:40;12.98;;;5.72;;
58294;SDS011;45705;55.592;37.460;2022-10-16T07:16:08;17.40;;;6.10;;
58294;SDS011;45705;55.592;37.460;2022-10-16T07:21:11;14.55;;;6.90;;
58294;SDS011;45705;55.592;37.460;2022-10-16T07:23:38;13.52;;;5.35;;
58294;SDS011;45705;55.592;37.460;2022-10-16T07:26:05;15.15;;;5.68;;
58294;SDS011;45705;55.592;37.460;2022-10-16T07:28:31;16.15;;;5.68;;
58294;SDS011;45705;55.592;37.460;2022-10-16T07:31:05;15.50;;;5.28;;
58294;SDS011;45705;55.592;37.460;2022-10-16T07:33:34;18.10;;;6.03;;
58294;SDS011;45705;55.592;37.460;2022-10-16T07:36:00;20.30;;;5.35;;
58294;SDS011;45705;55.592;37.460;2022-10-16T07:38:27;13.70;;;5.25;;
58294;SDS011;45705;55.592;37.460;2022-10-16T07:41:03;15.10;;;4.95;;
58294;SDS011;45705;55.592;37.460;2022-10-16T07:43:30;18.83;;;5.63;;
58294;SDS011;45705;55.592;37.460;2022-10-16T07:45:57;18.60;;;5.78;;
58294;SDS011;45705;55.592;37.460;2022-10-16T07:48:22;13.60;;;5.13;;
58294;SDS011;45705;55.592;37.460;2022-10-16T07:50:49;16.58;;;5.30;;
58294;SDS011;45705;55.592;37.460;2022-10-16T07:53:15;9.52;;;5.07;;
58294;SDS011;45705;55.592;37.460;2022-10-16T07:55:41;9.88;;;4.53;;
58294;SDS011;45705;55.592;37.460;2022-10-16T07:58:07;16.83;;;4.90;;
58294;SDS011;45705;55.592;37.460;2022-10-16T08:00:33;14.65;;;4.70;;
58294;SDS011;45705;55.592;37.460;2022-10-16T08:02:58;12.05;;;5.07;;
58294;SDS011;45705;55.592;37.460;2022-10-16T08:05:26;21.90;;;4.65;;
58294;SDS011;45705;55.592;37.460;2022-10-16T08:07:53;14.52;;;4.20;;
58294;SDS011;45705;55.592;37.460;2022-10-16T08:10:19;15.18;;;4.82;;
58294;SDS011;45705;55.592;37.460;2022-10-16T08:12:46;13.07;;;4.85;;
58294;SDS011;45705;55.592;37.460;2022-10-16T08:15:11;15.00;;;4.53;;
58294;SDS011;45705;55.592;37.460;2022-10-16T08:17:37;14.98;;;4.85;;
58294;SDS011;45705;55.592;37.460;2022-10-16T08:20:03;14.15;;;4.70;;
58294;SDS011;45705;55.592;37.460;2022-10-16T08:22:29;14.73;;;4.65;;
58294;SDS011;45705;55.592;37.460;2022-10-16T08:24:55;17.15;;;4.00;;
58294;SDS011;45705;55.592;37.460;2022-10-16T08:27:20;15.23;;;4.50;;
58294;SDS011;45705;55.592;37.460;2022-10-16T08:29:48;13.23;;;4.35;;
58294;SDS011;45705;55.592;37.460;2022-10-16T08:32:14;21.77;;;4.90;;
58294;SDS011;45705;55.592;37.460;2022-10-16T08:34:40;13.35;;;4.63;;
58294;SDS011;45705;55.592;37.460;2022-10-16T08:37:06;11.90;;;4.18;;
58294;SDS011;45705;55.592;37.460;2022-10-16T08:39:33;10.02;;;4.28;;
58294;SDS011;45705;55.592;37.460;2022-10-16T08:50:26;10.77;;;3.55;;
58294;SDS011;45705;55.592;37.460;2022-10-16T08:52:54;12.23;;;4.50;;
58294;SDS011;45705;55.592;37.460;2022-10-16T08:58:47;9.23;;;3.38;;
58294;SDS011;45705;55.592;37.460;2022-10-16T09:00:56;16.48;;;3.42;;
58294;SDS011;45705;55.592;37.460;2022-10-16T09:03:39;10.23;;;3.03;;
58294;SDS011;45705;55.592;37.460;2022-10-16T09:17:46;7.90;;;3.25;;
58294;SDS011;45705;55.592;37.460;2022-10-16T09:20:20;9.55;;;3.28;;
58294;SDS011;45705;55.592;37.460;2022-10-16T09:23:36;11.05;;;3.25;;
58294;SDS011;45705;55.592;37.460;2022-10-16T09:25:55;6.75;;;2.95;;
58294;SDS011;45705;55.592;37.460;2022-10-16T09:28:23;12.33;;;3.10;;
58294;SDS011;45705;55.592;37.460;2022-10-16T09:30:50;14.13;;;3.03;;
58294;SDS011;45705;55.592;37.460;2022-10-16T09:33:17;6.88;;;3.38;;
58294;SDS011;45705;55.592;37.460;2022-10-16T09:35:47;10.25;;;3.40;;
58294;SDS011;45705;55.592;37.460;2022-10-16T09:38:22;6.25;;;2.63;;
58294;SDS011;45705;55.592;37.460;2022-10-16T09:40:56;8.40;;;3.42;;
58294;SDS011;45705;55.592;37.460;2022-10-16T09:43:25;8.57;;;3.83;;
58294;SDS011;45705;55.592;37.460;2022-10-16T09:46:06;7.38;;;3.38;;
58294;SDS011;45705;55.592;37.460;2022-10-16T09:48:37;7.25;;;3.10;;
58294;SDS011;45705;55.592;37.460;2022-10-16T09:51:19;4.90;;;3.10;;
58294;SDS011;45705;55.592;37.460;2022-10-16T09:53:48;10.55;;;2.80;;
58294;SDS011;45705;55.592;37.460;2022-10-16T09:56:26;5.18;;;2.85;;
58294;SDS011;45705;55.592;37.460;2022-10-16T09:58:54;6.30;;;3.20;;
58294;SDS011;45705;55.592;37.460;2022-10-16T10:01:26;6.63;;;3.33;;
58294;SDS011;45705;55.592;37.460;2022-10-16T10:03:57;5.10;;;2.88;;
58294;SDS011;45705;55.592;37.460;2022-10-16T10:06:29;9.57;;;4.05;;
58294;SDS011;45705;55.592;37.460;2022-10-16T10:09:20;4.97;;;3.10;;
58294;SDS011;45705;55.592;37.460;2022-10-16T10:11:49;6.50;;;3.30;;
58294;SDS011;45705;55.592;37.460;2022-10-16T10:17:01;10.75;;;3.28;;
58294;SDS011;45705;55.592;37.460;2022-10-16T10:19:27;5.07;;;2.92;;
58294;SDS011;45705;55.592;37.460;2022-10-16T10:21:53;9.55;;;3.28;;
58294;SDS011;45705;55.592;37.460;2022-10-16T10:24:19;6.03;;;2.55;;
58294;SDS011;45705;55.592;37.460;2022-10-16T10:29:39;10.00;;;3.58;;
58294;SDS011;45705;55.592;37.460;2022-10-16T10:32:25;8.30;;;3.70;;
58294;SDS011;45705;55.592;37.460;2022-10-16T10:35:17;7.55;;;2.80;;
58294;SDS011;45705;55.592;37.460;2022-10-16T10:43:39;11.35;;;3.80;;
58294;SDS011;45705;55.592;37.460;2022-10-16T10:46:08;7.50;;;3.83;;
58294;SDS011;45705;55.592;37.460;2022-10-16T10:51:43;7.50;;;2.90;;
58294;SDS011;45705;55.592;37.460;2022-10-16T10:54:29;7.37;;;3.43;;
58294;SDS011;45705;55.592;37.460;2022-10-16T10:57:10;7.57;;;3.28;;
58294;SDS011;45705;55.592;37.460;2022-10-16T11:02:39;6.50;;;3.70;;
58294;SDS011;45705;55.592;37.460;2022-10-16T11:07:50;8.68;;;3.13;;
58294;SDS011;45705;55.592;37.460;2022-10-16T11:10:24;6.28;;;3.58;;
58294;SDS011;45705;55.592;37.460;2022-10-16T11:13:07;5.70;;;3.60;;
58294;SDS011;45705;55.592;37.460;2022-10-16T11:15:43;4.57;;;3.10;;
58294;SDS011;45705;55.592;37.460;2022-10-16T11:18:27;8.63;;;3.00;;
58294;SDS011;45705;55.592;37.460;2022-10-16T11:21:13;6.32;;;3.08;;
58294;SDS011;45705;55.592;37.460;2022-10-16T11:26:21;11.45;;;3.65;;
58294;SDS011;45705;55.592;37.460;2022-10-16T11:28:51;11.07;;;3.83;;
58294;SDS011;45705;55.592;37.460;2022-10-16T11:36:48;7.65;;;3.03;;
58294;SDS011;45705;55.592;37.460;2022-10-16T11:39:25;4.40;;;2.45;;
58294;SDS011;45705;55.592;37.460;2022-10-16T11:41:54;9.05;;;3.60;;
58294;SDS011;45705;55.592;37.460;2022-10-16T11:47:34;7.40;;;2.78;;
58294;SDS011;45705;55.592;37.460;2022-10-16T11:55:42;4.38;;;2.63;;
58294;SDS011;45705;55.592;37.460;2022-10-16T11:58:17;10.10;;;3.30;;
58294;SDS011;45705;55.592;37.460;2022-10-16T12:09:03;6.15;;;2.80;;
58294;SDS011;45705;55.592;37.460;2022-10-16T12:16:36;7.45;;;3.13;;
58294;SDS011;45705;55.592;37.460;2022-10-16T12:19:13;6.85;;;3.30;;
58294;SDS011;45705;55.592;37.460;2022-10-16T12:21:41;12.05;;;3.85;;
58294;SDS011;45705;55.592;37.460;2022-10-16T12:24:20;7.38;;;3.70;;
58294;SDS011;45705;55.592;37.460;2022-10-16T12:26:52;6.32;;;3.38;;
58294;SDS011;45705;55.592;37.460;2022-10-16T12:32:54;6.95;;;3.13;;
58294;SDS011;45705;55.592;37.460;2022-10-16T12:34:57;6.07;;;3.60;;
58294;SDS011;45705;55.592;37.460;2022-10-16T12:37:28;7.60;;;4.78;;
58294;SDS011;45705;55.592;37.460;2022-10-16T12:39:58;5.28;;;3.10;;
58294;SDS011;45705;55.592;37.460;2022-10-16T12:44:55;7.82;;;2.63;;
58294;SDS011;45705;55.592;37.460;2022-10-16T12:50:25;8.45;;;2.92;;
58294;SDS011;45705;55.592;37.460;2022-10-16T12:52:51;10.05;;;3.00;;
58294;SDS011;45705;55.592;37.460;2022-10-16T12:55:18;6.90;;;3.10;;
58294;SDS011;45705;55.592;37.460;2022-10-16T13:01:01;5.03;;;2.63;;
58294;SDS011;45705;55.592;37.460;2022-10-16T13:11:58;5.93;;;2.28;;
58294;SDS011;45705;55.592;37.460;2022-10-16T13:29:00;5.72;;;2.95;;
58294;SDS011;45705;55.592;37.460;2022-10-16T13:31:27;8.23;;;3.72;;
58294;SDS011;45705;55.592;37.460;2022-10-16T13:33:54;8.25;;;3.13;;
58294;SDS011;45705;55.592;37.460;2022-10-16T13:36:25;7.63;;;2.92;;
58294;SDS011;45705;55.592;37.460;2022-10-16T13:41:39;7.93;;;3.85;;
58294;SDS011;45705;55.592;37.460;2022-10-16T13:44:07;6.82;;;3.25;;
58294;SDS011;45705;55.592;37.460;2022-10-16T13:46:39;9.00;;;3.55;;
58294;SDS011;45705;55.592;37.460;2022-10-16T13:49:13;6.25;;;3.38;;
58294;SDS011;45705;55.592;37.460;2022-10-16T13:51:40;13.68;;;3.80;;
58294;SDS011;45705;55.592;37.460;2022-10-16T13:54:08;8.73;;;3.25;;
58294;SDS011;45705;55.592;37.460;2022-10-16T13:56:38;8.77;;;3.65;;
58294;SDS011;45705;55.592;37.460;2022-10-16T13:59:21;5.77;;;3.63;;
58294;SDS011;45705;55.592;37.460;2022-10-16T14:01:54;12.07;;;3.67;;
58294;SDS011;45705;55.592;37.460;2022-10-16T14:04:22;6.55;;;3.45;;
58294;SDS011;45705;55.592;37.460;2022-10-16T14:06:50;6.65;;;3.58;;
58294;SDS011;45705;55.592;37.460;2022-10-16T14:09:26;7.90;;;3.97;;
58294;SDS011;45705;55.592;37.460;2022-10-16T14:11:59;6.73;;;3.70;;
58294;SDS011;45705;55.592;37.460;2022-10-16T14:14:30;8.88;;;3.90;;
58294;SDS011;45705;55.592;37.460;2022-10-16T14:19:47;5.95;;;3.80;;
58294;SDS011;45705;55.592;37.460;2022-10-16T14:22:34;7.22;;;3.83;;
58294;SDS011;45705;55.592;37.460;2022-10-16T14:25:27;9.75;;;3.58;;
58294;SDS011;45705;55.592;37.460;2022-10-16T14:28:35;6.90;;;3.75;;
58294;SDS011;45705;55.592;37.460;2022-10-16T14:30:53;9.38;;;4.10;;
58294;SDS011;45705;55.592;37.460;2022-10-16T14:36:13;7.63;;;4.15;;
58294;SDS011;45705;55.592;37.460;2022-10-16T14:38:42;7.95;;;3.88;;
58294;SDS011;45705;55.592;37.460;2022-10-16T14:41:14;12.98;;;4.47;;
58294;SDS011;45705;55.592;37.460;2022-10-16T14:43:41;7.32;;;3.90;;
58294;SDS011;45705;55.592;37.460;2022-10-16T14:48:47;7.32;;;4.05;;
58294;SDS011;45705;55.592;37.460;2022-10-16T14:51:16;6.65;;;4.22;;
58294;SDS011;45705;55.592;37.460;2022-10-16T14:53:44;10.95;;;4.95;;
58294;SDS011;45705;55.592;37.460;2022-10-16T14:56:15;9.23;;;4.97;;
58294;SDS011;45705;55.592;37.460;2022-10-16T14:58:43;8.85;;;5.05;;
58294;SDS011;45705;55.592;37.460;2022-10-16T15:01:09;10.77;;;4.70;;
58294;SDS011;45705;55.592;37.460;2022-10-16T15:03:37;10.45;;;5.38;;
58294;SDS011;45705;55.592;37.460;2022-10-16T15:06:03;9.13;;;4.53;;
58294;SDS011;45705;55.592;37.460;2022-10-16T15:08:36;11.38;;;4.75;;
58294;SDS011;45705;55.592;37.460;2022-10-16T15:11:02;11.60;;;5.30;;
58294;SDS011;45705;55.592;37.460;2022-10-16T15:13:28;10.30;;;4.97;;
58294;SDS011;45705;55.592;37.460;2022-10-16T15:15:53;8.82;;;5.03;;
58294;SDS011;45705;55.592;37.460;2022-10-16T15:18:19;10.45;;;5.35;;
58294;SDS011;45705;55.592;37.460;2022-10-16T15:20:47;12.10;;;5.38;;
58294;SDS011;45705;55.592;37.460;2022-10-16T15:23:16;12.52;;;5.15;;
58294;SDS011;45705;55.592;37.460;2022-10-16T15:25:45;9.18;;;5.13;;
58294;SDS011;45705;55.592;37.460;2022-10-16T15:28:11;9.77;;;5.22;;
58294;SDS011;45705;55.592;37.460;2022-10-16T15:30:37;10.45;;;5.38;;
58294;SDS011;45705;55.592;37.460;2022-10-16T15:33:04;7.20;;;4.63;;
58294;SDS011;45705;55.592;37.460;2022-10-16T15:35:35;8.60;;;5.28;;
58294;SDS011;45705;55.592;37.460;2022-10-16T15:38:01;9.00;;;5.20;;
58294;SDS011;45705;55.592;37.460;2022-10-16T15:40:27;9.48;;;5.28;;
58294;SDS011;45705;55.592;37.460;2022-10-16T15:42:53;12.25;;;5.80;;
58294;SDS011;45705;55.592;37.460;2022-10-16T15:45:18;9.48;;;5.78;;
58294;SDS011;45705;55.592;37.460;2022-10-16T15:47:44;11.20;;;5.22;;
58294;SDS011;45705;55.592;37.460;2022-10-16T15:50:11;11.43;;;5.40;;
58294;SDS011;45705;55.592;37.460;2022-10-16T15:52:38;10.57;;;5.97;;
58294;SDS011;45705;55.592;37.460;2022-10-16T15:55:08;11.55;;;5.57;;
58294;SDS011;45705;55.592;37.460;2022-10-16T15:57:35;16.23;;;5.80;;
58294;SDS011;45705;55.592;37.460;2022-10-16T16:00:10;14.48;;;6.20;;
58294;SDS011;45705;55.592;37.460;2022-10-16T16:02:38;12.30;;;5.65;;
58294;SDS011;45705;55.592;37.460;2022-10-16T16:05:05;12.85;;;5.68;;
58294;SDS011;45705;55.592;37.460;2022-10-16T16:07:33;12.88;;;5.40;;
58294;SDS011;45705;55.592;37.460;2022-10-16T16:10:00;14.85;;;6.15;;
58294;SDS011;45705;55.592;37.460;2022-10-16T16:12:26;11.02;;;5.47;;
58294;SDS011;45705;55.592;37.460;2022-10-16T16:14:52;12.02;;;5.90;;
58294;SDS011;45705;55.592;37.460;2022-10-16T16:17:18;9.18;;;5.82;;
58294;SDS011;45705;55.592;37.460;2022-10-16T16:19:45;9.10;;;5.47;;
58294;SDS011;45705;55.592;37.460;2022-10-16T16:22:11;14.60;;;7.13;;
58294;SDS011;45705;55.592;37.460;2022-10-16T16:24:37;10.52;;;5.70;;
58294;SDS011;45705;55.592;37.460;2022-10-16T16:27:02;12.02;;;6.13;;
58294;SDS011;45705;55.592;37.460;2022-10-16T16:29:28;11.60;;;5.68;;
58294;SDS011;45705;55.592;37.460;2022-10-16T16:31:54;11.23;;;6.13;;
58294;SDS011;45705;55.592;37.460;2022-10-16T16:34:25;10.40;;;5.53;;
58294;SDS011;45705;55.592;37.460;2022-10-16T16:36:53;11.95;;;5.80;;
58294;SDS011;45705;55.592;37.460;2022-10-16T16:39:19;9.68;;;5.45;;
58294;SDS011;45705;55.592;37.460;2022-10-16T16:41:45;12.50;;;7.57;;
58294;SDS011;45705;55.592;37.460;2022-10-16T16:44:13;9.63;;;5.35;;
58294;SDS011;45705;55.592;37.460;2022-10-16T16:49:09;12.93;;;5.78;;
58294;SDS011;45705;55.592;37.460;2022-10-16T16:51:36;13.88;;;5.03;;
58294;SDS011;45705;55.592;37.460;2022-10-16T16:54:03;10.32;;;5.20;;
58294;SDS011;45705;55.592;37.460;2022-10-16T16:56:29;8.65;;;5.10;;
58294;SDS011;45705;55.592;37.460;2022-10-16T16:58:55;14.27;;;6.22;;
58294;SDS011;45705;55.592;37.460;2022-10-16T17:01:22;10.75;;;5.78;;
58294;SDS011;45705;55.592;37.460;2022-10-16T17:03:52;10.20;;;5.53;;
58294;SDS011;45705;55.592;37.460;2022-10-16T17:06:20;11.68;;;6.00;;